Terminal Aerodrome Forecast
Issued by NWS

Home | Current Version | Previous Version | Text Only | Print | Product List | Glossary On
Versions: 1 2 3 4 5 6 7 8 9 10 11 12 13 14 15 16 17 18 19 20 21 22 23 24 25 26 27 28
000
FTPQ31 PGUM 021737
TAFGUM
TAF

TAF
PTKK 021737Z 0218/0318 06010KT P6SM VCTS SCT014CB SCT040 BKN120
      TEMPO 0218/0221 3SM TSRA BKN014CB BKN040 OVC080
     FM030000 06011KT P6SM VCSH SCT014 BKN050 BKN120=

USA.gov is the U.S. government's official web portal to all federal, state and local government web resources and services.